Terminal Aerodrome Forecast
Issued by NWS Pocatello, ID

Home | Current Version | Previous Version | Text Only | Print | Product List | Glossary On
Versions: 1 2 3 4 5 6 7 8 9 10 11 12 13 14 15 16 17 18 19 20
000
FTUS45 KPIH 270520
TAFPIH
TAF
KPIH 270520Z 2706/2806 04011KT P6SM BKN050 OVC100
     FM271000 VRB06KT P6SM VCSH SCT070 BKN100
     FM271800 26010KT P6SM -SHRA VCTS BKN080CB OVC100
     FM280400 21010KT P6SM VCSH BKN080=

USA.gov is the U.S. government's official web portal to all federal, state and local government web resources and services.